CYDF/YDF METAR and TAF weather

Enter ICAO airport designator
Station Type Date Time Source
CYDF METAR 2019/10/21 02:00 UTC NOAA

CYDF 210200Z 27009G17KT 250V330 15SM OVC020 07/03 A2986 RMK SC8 SLP113


Station Type Date Time Source
CYDF Decoded METAR 2019/10/21 02:00 UTC NOAA

Deer Lake, Nfld., Canada (CYDF) 49-13N 057-24W 22M
Oct 20, 2019 - 10:00 PM EDT / 2019.10.21 0200 UTC
Wind: from the W (270 degrees) at 10 MPH (9 KT) gusting to 20 MPH (17 KT) (direction variable):0
Visibility: 15 mile(s):0
Sky conditions: overcast
Temperature: 44 F (7 C)
Dew Point: 37 F (3 C)
Relative Humidity: 75%
Pressure (altimeter): 29.86 in. Hg (1011 hPa)
ob: CYDF 210200Z 27009G17KT 250V330 15SM OVC020 07/03 A2986 RMK SC8 SLP113
cycle: 2

Station Type Date Time Source
CYDF TAF 2019/10/21 02:39 UTC NOAA

TAF CYDF 210138Z 2102/2114 23008KT P6SM OVC020
TEMPO 2102/2112 SCT020 BKN040
FM211200 26010KT P6SM BKN020
RMK NXT FCST BY 210800Z

Example: see airport list